createdAt,value
2022-12-31T00:17:58.638Z,1015.15
2022-12-31T00:46:49.076Z,1015.34
2022-12-31T01:15:25.425Z,1015.53
2022-12-31T01:44:17.375Z,1015.72
2022-12-31T02:13:08.581Z,1015.97
2022-12-31T02:42:04.328Z,1016.02
2022-12-31T03:10:59.241Z,1016.07
2022-12-31T03:39:49.327Z,1016.15
2022-12-31T04:08:37.328Z,1016.21
2022-12-31T04:37:29.664Z,1016.38
2022-12-31T05:06:19.767Z,1016.23
2022-12-31T05:35:07.403Z,1016.26
2022-12-31T06:04:01.037Z,1016.72
2022-12-31T06:32:54.519Z,1016.5
2022-12-31T07:01:42.119Z,1016.89
2022-12-31T07:30:31.310Z,1017.06
2022-12-31T07:59:05.293Z,1017.11
2022-12-31T08:27:57.922Z,1017.61
2022-12-31T08:56:39.154Z,1017.66
2022-12-31T09:20:14.803Z,1017.67
2022-12-31T09:27:33.863Z,1017.66
2022-12-31T09:55:58.823Z,1017.81
2022-12-31T10:24:29.084Z,1017.59
2022-12-31T10:52:55.667Z,1017.01
2022-12-31T11:21:42.587Z,1016.84
2022-12-31T11:50:08.113Z,1016.5
2022-12-31T12:18:43.702Z,1016.49
2022-12-31T12:47:17.138Z,1016.06
2022-12-31T13:15:47.589Z,1016.06
2022-12-31T13:44:14.367Z,1016.09
2022-12-31T14:12:42.543Z,1016.29
2022-12-31T14:41:09.780Z,1016.41
2022-12-31T15:09:39.717Z,1016.46
2022-12-31T15:38:02.547Z,1016.32
2022-12-31T16:06:38.038Z,1016.52
2022-12-31T16:35:24.129Z,1016.86
2022-12-31T17:03:31.176Z,1016.97
2022-12-31T17:32:01.907Z,1017
2022-12-31T18:00:33.343Z,1017.26
2022-12-31T18:29:00.983Z,1017.55
2022-12-31T18:57:32.587Z,1017.82
2022-12-31T19:26:07.858Z,1017.78
2022-12-31T19:54:50.343Z,1017.59
2022-12-31T20:23:22.570Z,1017.69
2022-12-31T20:52:01.805Z,1017.87
2022-12-31T21:20:36.679Z,1018.15
2022-12-31T21:49:26.077Z,1018.25
2022-12-31T22:17:50.621Z,1018.47
2022-12-31T22:46:24.292Z,1018.7
2022-12-31T23:14:56.531Z,1018.96
2022-12-31T23:43:27.950Z,1019.08
